sensor_id;sensor_type;location;lat;lon;timestamp;P1;durP1;ratioP1;P2;durP2;ratioP2
10985;SDS011;5546;48.714;8.738;2023-04-22T00:01:47;4.23;;;3.77;;
10985;SDS011;5546;48.714;8.738;2023-04-22T00:04:13;5.63;;;4.40;;
10985;SDS011;5546;48.714;8.738;2023-04-22T00:06:39;10.13;;;4.13;;
10985;SDS011;5546;48.714;8.738;2023-04-22T00:09:07;4.70;;;4.07;;
10985;SDS011;5546;48.714;8.738;2023-04-22T00:11:34;7.10;;;4.20;;
10985;SDS011;5546;48.714;8.738;2023-04-22T00:13:59;4.13;;;3.50;;
10985;SDS011;5546;48.714;8.738;2023-04-22T00:16:25;4.60;;;3.70;;
10985;SDS011;5546;48.714;8.738;2023-04-22T00:18:51;4.30;;;3.10;;
10985;SDS011;5546;48.714;8.738;2023-04-22T00:21:17;3.27;;;2.93;;
10985;SDS011;5546;48.714;8.738;2023-04-22T00:23:43;6.03;;;3.83;;
10985;SDS011;5546;48.714;8.738;2023-04-22T00:26:09;7.57;;;3.90;;
10985;SDS011;5546;48.714;8.738;2023-04-22T00:28:35;6.03;;;3.77;;
10985;SDS011;5546;48.714;8.738;2023-04-22T00:31:10;3.90;;;3.30;;
10985;SDS011;5546;48.714;8.738;2023-04-22T00:33:36;3.40;;;3.10;;
10985;SDS011;5546;48.714;8.738;2023-04-22T00:36:12;5.07;;;3.30;;
10985;SDS011;5546;48.714;8.738;2023-04-22T00:38:48;4.60;;;3.27;;
10985;SDS011;5546;48.714;8.738;2023-04-22T00:41:16;4.17;;;3.43;;
10985;SDS011;5546;48.714;8.738;2023-04-22T00:43:42;4.07;;;3.53;;
10985;SDS011;5546;48.714;8.738;2023-04-22T00:46:08;3.70;;;3.40;;
10985;SDS011;5546;48.714;8.738;2023-04-22T00:48:35;5.47;;;3.40;;
10985;SDS011;5546;48.714;8.738;2023-04-22T00:51:38;4.33;;;3.27;;
10985;SDS011;5546;48.714;8.738;2023-04-22T00:54:04;4.80;;;3.50;;
10985;SDS011;5546;48.714;8.738;2023-04-22T00:57:02;8.20;;;3.90;;
10985;SDS011;5546;48.714;8.738;2023-04-22T00:59:29;4.80;;;3.73;;
10985;SDS011;5546;48.714;8.738;2023-04-22T01:01:55;5.57;;;3.83;;
10985;SDS011;5546;48.714;8.738;2023-04-22T01:04:21;4.87;;;3.37;;
10985;SDS011;5546;48.714;8.738;2023-04-22T01:06:47;4.67;;;3.57;;
10985;SDS011;5546;48.714;8.738;2023-04-22T01:12:09;5.27;;;3.40;;
10985;SDS011;5546;48.714;8.738;2023-04-22T01:14:53;4.97;;;3.37;;
10985;SDS011;5546;48.714;8.738;2023-04-22T01:17:28;3.77;;;3.23;;
10985;SDS011;5546;48.714;8.738;2023-04-22T01:19:55;3.57;;;3.27;;
10985;SDS011;5546;48.714;8.738;2023-04-22T01:22:22;6.00;;;3.53;;
10985;SDS011;5546;48.714;8.738;2023-04-22T01:25:30;3.97;;;3.33;;
10985;SDS011;5546;48.714;8.738;2023-04-22T01:28:21;3.53;;;3.10;;
10985;SDS011;5546;48.714;8.738;2023-04-22T01:30:47;3.97;;;2.90;;
10985;SDS011;5546;48.714;8.738;2023-04-22T01:33:47;3.37;;;2.93;;
10985;SDS011;5546;48.714;8.738;2023-04-22T01:36:13;3.40;;;2.70;;
10985;SDS011;5546;48.714;8.738;2023-04-22T01:38:39;8.33;;;2.90;;
10985;SDS011;5546;48.714;8.738;2023-04-22T01:41:05;2.90;;;2.70;;
10985;SDS011;5546;48.714;8.738;2023-04-22T01:43:31;3.03;;;2.77;;
10985;SDS011;5546;48.714;8.738;2023-04-22T01:45:59;3.40;;;3.00;;
10985;SDS011;5546;48.714;8.738;2023-04-22T01:48:25;3.50;;;2.80;;
10985;SDS011;5546;48.714;8.738;2023-04-22T01:50:51;5.53;;;2.80;;
10985;SDS011;5546;48.714;8.738;2023-04-22T01:53:17;3.57;;;3.27;;
10985;SDS011;5546;48.714;8.738;2023-04-22T01:55:43;7.13;;;3.20;;
10985;SDS011;5546;48.714;8.738;2023-04-22T01:58:08;4.90;;;2.73;;
10985;SDS011;5546;48.714;8.738;2023-04-22T02:00:34;2.77;;;2.57;;
10985;SDS011;5546;48.714;8.738;2023-04-22T02:03:00;7.00;;;2.83;;
10985;SDS011;5546;48.714;8.738;2023-04-22T02:05:26;4.67;;;2.83;;
10985;SDS011;5546;48.714;8.738;2023-04-22T02:07:52;3.00;;;2.70;;
10985;SDS011;5546;48.714;8.738;2023-04-22T02:10:18;5.10;;;3.47;;
10985;SDS011;5546;48.714;8.738;2023-04-22T02:12:44;4.17;;;2.93;;
10985;SDS011;5546;48.714;8.738;2023-04-22T02:15:10;3.47;;;3.17;;
10985;SDS011;5546;48.714;8.738;2023-04-22T02:17:36;3.57;;;2.90;;
10985;SDS011;5546;48.714;8.738;2023-04-22T02:20:03;4.10;;;2.67;;
10985;SDS011;5546;48.714;8.738;2023-04-22T02:22:29;4.37;;;3.00;;
10985;SDS011;5546;48.714;8.738;2023-04-22T02:24:56;3.47;;;3.00;;
10985;SDS011;5546;48.714;8.738;2023-04-22T02:27:22;3.37;;;3.00;;
10985;SDS011;5546;48.714;8.738;2023-04-22T02:29:48;5.03;;;2.80;;
10985;SDS011;5546;48.714;8.738;2023-04-22T02:32:13;3.67;;;2.50;;
10985;SDS011;5546;48.714;8.738;2023-04-22T02:34:41;4.27;;;2.40;;
10985;SDS011;5546;48.714;8.738;2023-04-22T02:37:07;4.93;;;3.00;;
10985;SDS011;5546;48.714;8.738;2023-04-22T02:39:33;4.73;;;2.60;;
10985;SDS011;5546;48.714;8.738;2023-04-22T02:41:58;3.63;;;2.70;;
10985;SDS011;5546;48.714;8.738;2023-04-22T02:44:25;3.83;;;2.73;;
10985;SDS011;5546;48.714;8.738;2023-04-22T02:46:51;4.67;;;2.77;;
10985;SDS011;5546;48.714;8.738;2023-04-22T02:49:17;5.20;;;2.80;;
10985;SDS011;5546;48.714;8.738;2023-04-22T02:51:42;5.00;;;2.77;;
10985;SDS011;5546;48.714;8.738;2023-04-22T02:54:08;3.50;;;2.77;;
10985;SDS011;5546;48.714;8.738;2023-04-22T02:56:34;4.67;;;3.07;;
10985;SDS011;5546;48.714;8.738;2023-04-22T02:59:00;3.73;;;2.70;;
10985;SDS011;5546;48.714;8.738;2023-04-22T03:01:26;4.03;;;3.00;;
10985;SDS011;5546;48.714;8.738;2023-04-22T03:03:52;4.80;;;2.87;;
10985;SDS011;5546;48.714;8.738;2023-04-22T03:06:18;4.33;;;2.80;;
10985;SDS011;5546;48.714;8.738;2023-04-22T03:08:44;5.30;;;2.40;;
10985;SDS011;5546;48.714;8.738;2023-04-22T03:11:10;4.43;;;2.80;;
10985;SDS011;5546;48.714;8.738;2023-04-22T03:13:37;4.60;;;2.60;;
10985;SDS011;5546;48.714;8.738;2023-04-22T03:16:03;3.33;;;3.00;;
10985;SDS011;5546;48.714;8.738;2023-04-22T03:18:29;3.30;;;3.00;;
10985;SDS011;5546;48.714;8.738;2023-04-22T03:20:55;3.30;;;2.87;;
10985;SDS011;5546;48.714;8.738;2023-04-22T03:23:21;4.67;;;3.37;;
10985;SDS011;5546;48.714;8.738;2023-04-22T03:25:46;3.43;;;2.77;;
10985;SDS011;5546;48.714;8.738;2023-04-22T03:28:12;4.10;;;2.77;;
10985;SDS011;5546;48.714;8.738;2023-04-22T03:30:38;3.03;;;2.73;;
10985;SDS011;5546;48.714;8.738;2023-04-22T03:33:04;4.40;;;2.80;;
10985;SDS011;5546;48.714;8.738;2023-04-22T03:35:30;3.53;;;3.03;;
10985;SDS011;5546;48.714;8.738;2023-04-22T03:37:56;3.43;;;3.13;;
10985;SDS011;5546;48.714;8.738;2023-04-22T03:40:22;3.50;;;3.20;;
10985;SDS011;5546;48.714;8.738;2023-04-22T03:42:48;4.93;;;3.27;;
10985;SDS011;5546;48.714;8.738;2023-04-22T03:45:13;3.70;;;3.27;;
10985;SDS011;5546;48.714;8.738;2023-04-22T03:47:39;6.07;;;3.00;;
10985;SDS011;5546;48.714;8.738;2023-04-22T03:50:05;3.67;;;3.37;;
10985;SDS011;5546;48.714;8.738;2023-04-22T03:52:31;4.97;;;3.00;;
10985;SDS011;5546;48.714;8.738;2023-04-22T03:54:56;3.73;;;3.30;;
10985;SDS011;5546;48.714;8.738;2023-04-22T03:57:22;3.30;;;3.00;;
10985;SDS011;5546;48.714;8.738;2023-04-22T03:59:48;7.33;;;3.17;;
10985;SDS011;5546;48.714;8.738;2023-04-22T04:02:14;4.83;;;3.17;;
10985;SDS011;5546;48.714;8.738;2023-04-22T04:04:40;3.30;;;2.97;;
10985;SDS011;5546;48.714;8.738;2023-04-22T04:07:06;4.93;;;3.20;;
10985;SDS011;5546;48.714;8.738;2023-04-22T04:09:32;4.53;;;3.07;;
10985;SDS011;5546;48.714;8.738;2023-04-22T04:11:58;3.53;;;3.17;;
10985;SDS011;5546;48.714;8.738;2023-04-22T04:14:24;3.47;;;3.17;;
10985;SDS011;5546;48.714;8.738;2023-04-22T04:16:50;6.00;;;3.40;;
10985;SDS011;5546;48.714;8.738;2023-04-22T04:19:15;3.37;;;3.00;;
10985;SDS011;5546;48.714;8.738;2023-04-22T04:21:41;6.37;;;3.63;;
10985;SDS011;5546;48.714;8.738;2023-04-22T04:24:07;3.83;;;2.90;;
10985;SDS011;5546;48.714;8.738;2023-04-22T04:26:32;4.70;;;3.30;;
10985;SDS011;5546;48.714;8.738;2023-04-22T04:28:58;5.03;;;3.43;;
10985;SDS011;5546;48.714;8.738;2023-04-22T04:31:26;4.57;;;3.00;;
10985;SDS011;5546;48.714;8.738;2023-04-22T04:33:52;3.10;;;2.60;;
10985;SDS011;5546;48.714;8.738;2023-04-22T04:36:17;3.63;;;2.90;;
10985;SDS011;5546;48.714;8.738;2023-04-22T04:38:43;2.73;;;2.47;;
10985;SDS011;5546;48.714;8.738;2023-04-22T04:41:09;5.10;;;2.80;;
10985;SDS011;5546;48.714;8.738;2023-04-22T04:43:35;2.60;;;2.40;;
10985;SDS011;5546;48.714;8.738;2023-04-22T04:46:00;3.23;;;2.93;;
10985;SDS011;5546;48.714;8.738;2023-04-22T04:48:26;2.60;;;2.33;;
10985;SDS011;5546;48.714;8.738;2023-04-22T04:50:52;2.83;;;2.53;;
10985;SDS011;5546;48.714;8.738;2023-04-22T04:53:21;2.93;;;2.73;;
10985;SDS011;5546;48.714;8.738;2023-04-22T04:55:47;4.40;;;2.60;;
10985;SDS011;5546;48.714;8.738;2023-04-22T04:58:13;3.40;;;2.47;;
10985;SDS011;5546;48.714;8.738;2023-04-22T05:00:39;4.00;;;2.50;;
10985;SDS011;5546;48.714;8.738;2023-04-22T05:03:04;2.60;;;2.40;;
10985;SDS011;5546;48.714;8.738;2023-04-22T05:05:30;2.93;;;2.37;;
10985;SDS011;5546;48.714;8.738;2023-04-22T05:07:55;3.17;;;2.87;;
10985;SDS011;5546;48.714;8.738;2023-04-22T05:10:21;2.70;;;2.50;;
10985;SDS011;5546;48.714;8.738;2023-04-22T05:12:47;3.93;;;2.33;;
10985;SDS011;5546;48.714;8.738;2023-04-22T05:15:13;3.57;;;2.37;;
10985;SDS011;5546;48.714;8.738;2023-04-22T05:17:39;2.60;;;2.40;;
10985;SDS011;5546;48.714;8.738;2023-04-22T05:20:04;3.67;;;2.47;;
10985;SDS011;5546;48.714;8.738;2023-04-22T05:22:30;2.70;;;2.30;;
10985;SDS011;5546;48.714;8.738;2023-04-22T05:24:56;2.97;;;2.67;;
10985;SDS011;5546;48.714;8.738;2023-04-22T05:27:22;3.10;;;2.77;;
10985;SDS011;5546;48.714;8.738;2023-04-22T05:29:48;2.80;;;2.60;;
10985;SDS011;5546;48.714;8.738;2023-04-22T05:32:13;2.83;;;2.53;;
10985;SDS011;5546;48.714;8.738;2023-04-22T05:34:39;5.00;;;2.83;;
10985;SDS011;5546;48.714;8.738;2023-04-22T05:37:05;3.07;;;2.70;;
10985;SDS011;5546;48.714;8.738;2023-04-22T05:39:32;2.40;;;2.20;;
10985;SDS011;5546;48.714;8.738;2023-04-22T05:41:58;2.47;;;2.23;;
10985;SDS011;5546;48.714;8.738;2023-04-22T05:44:23;3.47;;;2.67;;
10985;SDS011;5546;48.714;8.738;2023-04-22T05:46:49;2.50;;;2.30;;
10985;SDS011;5546;48.714;8.738;2023-04-22T05:49:14;2.40;;;2.20;;
10985;SDS011;5546;48.714;8.738;2023-04-22T05:51:40;3.07;;;2.40;;
10985;SDS011;5546;48.714;8.738;2023-04-22T05:54:06;2.47;;;2.27;;
10985;SDS011;5546;48.714;8.738;2023-04-22T05:56:32;2.40;;;2.20;;
10985;SDS011;5546;48.714;8.738;2023-04-22T05:58:58;2.73;;;2.37;;
10985;SDS011;5546;48.714;8.738;2023-04-22T06:01:24;2.30;;;2.10;;
10985;SDS011;5546;48.714;8.738;2023-04-22T06:03:50;2.10;;;1.90;;
10985;SDS011;5546;48.714;8.738;2023-04-22T06:06:15;2.30;;;2.10;;
10985;SDS011;5546;48.714;8.738;2023-04-22T06:08:41;2.87;;;1.93;;
10985;SDS011;5546;48.714;8.738;2023-04-22T06:11:07;2.20;;;2.00;;
10985;SDS011;5546;48.714;8.738;2023-04-22T06:13:32;2.30;;;1.93;;
10985;SDS011;5546;48.714;8.738;2023-04-22T06:15:58;2.47;;;1.90;;
10985;SDS011;5546;48.714;8.738;2023-04-22T06:18:24;2.70;;;1.97;;
10985;SDS011;5546;48.714;8.738;2023-04-22T06:20:50;2.50;;;2.27;;
10985;SDS011;5546;48.714;8.738;2023-04-22T06:23:16;2.20;;;2.00;;
10985;SDS011;5546;48.714;8.738;2023-04-22T06:25:42;3.37;;;2.20;;
10985;SDS011;5546;48.714;8.738;2023-04-22T06:28:07;4.20;;;2.40;;
10985;SDS011;5546;48.714;8.738;2023-04-22T06:30:33;3.27;;;2.90;;
10985;SDS011;5546;48.714;8.738;2023-04-22T06:32:58;4.80;;;2.40;;
10985;SDS011;5546;48.714;8.738;2023-04-22T06:35:24;3.67;;;2.60;;
10985;SDS011;5546;48.714;8.738;2023-04-22T06:37:50;5.70;;;2.57;;
10985;SDS011;5546;48.714;8.738;2023-04-22T06:40:16;3.90;;;2.33;;
10985;SDS011;5546;48.714;8.738;2023-04-22T06:42:42;2.67;;;2.47;;
10985;SDS011;5546;48.714;8.738;2023-04-22T06:45:07;3.03;;;2.70;;
10985;SDS011;5546;48.714;8.738;2023-04-22T06:47:36;2.60;;;2.40;;
10985;SDS011;5546;48.714;8.738;2023-04-22T06:50:06;3.57;;;2.47;;
10985;SDS011;5546;48.714;8.738;2023-04-22T06:52:33;2.73;;;2.53;;
10985;SDS011;5546;48.714;8.738;2023-04-22T06:54:59;2.77;;;2.53;;
10985;SDS011;5546;48.714;8.738;2023-04-22T06:57:26;3.03;;;2.53;;
10985;SDS011;5546;48.714;8.738;2023-04-22T06:59:52;2.73;;;2.47;;
10985;SDS011;5546;48.714;8.738;2023-04-22T07:02:18;2.87;;;2.57;;
10985;SDS011;5546;48.714;8.738;2023-04-22T07:04:44;2.67;;;2.47;;
10985;SDS011;5546;48.714;8.738;2023-04-22T07:07:09;3.23;;;2.93;;
10985;SDS011;5546;48.714;8.738;2023-04-22T07:09:35;2.90;;;2.60;;
10985;SDS011;5546;48.714;8.738;2023-04-22T07:12:00;2.90;;;2.60;;
10985;SDS011;5546;48.714;8.738;2023-04-22T07:14:26;3.00;;;2.70;;
10985;SDS011;5546;48.714;8.738;2023-04-22T07:16:52;3.63;;;2.60;;
10985;SDS011;5546;48.714;8.738;2023-04-22T07:19:17;3.10;;;2.63;;
10985;SDS011;5546;48.714;8.738;2023-04-22T07:21:43;2.70;;;2.50;;
10985;SDS011;5546;48.714;8.738;2023-04-22T07:24:09;2.93;;;2.50;;
10985;SDS011;5546;48.714;8.738;2023-04-22T07:26:38;4.90;;;2.33;;
10985;SDS011;5546;48.714;8.738;2023-04-22T07:29:05;2.60;;;2.40;;
10985;SDS011;5546;48.714;8.738;2023-04-22T07:31:31;3.33;;;2.90;;
10985;SDS011;5546;48.714;8.738;2023-04-22T07:33:57;3.67;;;2.60;;
10985;SDS011;5546;48.714;8.738;2023-04-22T07:36:23;2.80;;;2.50;;
10985;SDS011;5546;48.714;8.738;2023-04-22T07:38:49;4.20;;;2.40;;
10985;SDS011;5546;48.714;8.738;2023-04-22T07:41:14;2.53;;;2.33;;
10985;SDS011;5546;48.714;8.738;2023-04-22T07:43:40;2.80;;;2.60;;
10985;SDS011;5546;48.714;8.738;2023-04-22T07:46:05;6.60;;;2.70;;
10985;SDS011;5546;48.714;8.738;2023-04-22T07:48:31;2.83;;;2.53;;
10985;SDS011;5546;48.714;8.738;2023-04-22T07:50:56;4.80;;;2.60;;
10985;SDS011;5546;48.714;8.738;2023-04-22T07:53:22;2.87;;;2.63;;
10985;SDS011;5546;48.714;8.738;2023-04-22T07:55:47;3.10;;;2.80;;
10985;SDS011;5546;48.714;8.738;2023-04-22T07:58:13;3.60;;;2.60;;
10985;SDS011;5546;48.714;8.738;2023-04-22T08:00:39;2.90;;;2.60;;
10985;SDS011;5546;48.714;8.738;2023-04-22T08:03:05;3.47;;;2.80;;
10985;SDS011;5546;48.714;8.738;2023-04-22T08:05:30;3.95;;;2.85;;
10985;SDS011;5546;48.714;8.738;2023-04-22T08:07:56;3.50;;;2.78;;
10985;SDS011;5546;48.714;8.738;2023-04-22T08:10:21;2.85;;;2.55;;
10985;SDS011;5546;48.714;8.738;2023-04-22T08:12:47;3.47;;;3.03;;
10985;SDS011;5546;48.714;8.738;2023-04-22T08:15:13;3.15;;;2.63;;
10985;SDS011;5546;48.714;8.738;2023-04-22T08:17:38;3.47;;;2.65;;
10985;SDS011;5546;48.714;8.738;2023-04-22T08:20:04;3.17;;;2.40;;
10985;SDS011;5546;48.714;8.738;2023-04-22T08:22:30;4.82;;;2.53;;
10985;SDS011;5546;48.714;8.738;2023-04-22T08:24:57;3.08;;;2.58;;
10985;SDS011;5546;48.714;8.738;2023-04-22T08:27:24;5.65;;;2.67;;
10985;SDS011;5546;48.714;8.738;2023-04-22T08:29:50;2.92;;;2.50;;
10985;SDS011;5546;48.714;8.738;2023-04-22T08:32:15;4.93;;;2.92;;
10985;SDS011;5546;48.714;8.738;2023-04-22T08:34:43;3.28;;;2.63;;
10985;SDS011;5546;48.714;8.738;2023-04-22T08:37:09;4.07;;;2.50;;
10985;SDS011;5546;48.714;8.738;2023-04-22T08:39:35;3.28;;;2.50;;
10985;SDS011;5546;48.714;8.738;2023-04-22T08:42:00;2.42;;;2.22;;
10985;SDS011;5546;48.714;8.738;2023-04-22T08:44:26;3.97;;;2.45;;
10985;SDS011;5546;48.714;8.738;2023-04-22T08:46:53;3.05;;;2.60;;
10985;SDS011;5546;48.714;8.738;2023-04-22T08:49:19;5.35;;;2.55;;
10985;SDS011;5546;48.714;8.738;2023-04-22T08:51:47;4.72;;;2.70;;
10985;SDS011;5546;48.714;8.738;2023-04-22T08:54:14;2.65;;;2.30;;
10985;SDS011;5546;48.714;8.738;2023-04-22T08:56:40;4.45;;;2.47;;
10985;SDS011;5546;48.714;8.738;2023-04-22T08:59:09;3.75;;;2.20;;
10985;SDS011;5546;48.714;8.738;2023-04-22T09:01:35;2.15;;;1.95;;
10985;SDS011;5546;48.714;8.738;2023-04-22T09:04:03;2.42;;;2.10;;
10985;SDS011;5546;48.714;8.738;2023-04-22T09:06:30;4.78;;;2.05;;
10985;SDS011;5546;48.714;8.738;2023-04-22T09:08:56;3.10;;;1.70;;
10985;SDS011;5546;48.714;8.738;2023-04-22T09:11:23;2.10;;;1.90;;
10985;SDS011;5546;48.714;8.738;2023-04-22T09:13:54;2.15;;;1.95;;
10985;SDS011;5546;48.714;8.738;2023-04-22T09:16:20;1.70;;;1.60;;
10985;SDS011;5546;48.714;8.738;2023-04-22T09:18:45;3.30;;;2.72;;
10985;SDS011;5546;48.714;8.738;2023-04-22T09:21:11;3.00;;;1.80;;
10985;SDS011;5546;48.714;8.738;2023-04-22T09:23:49;2.97;;;1.80;;
10985;SDS011;5546;48.714;8.738;2023-04-22T09:26:23;2.28;;;1.77;;
10985;SDS011;5546;48.714;8.738;2023-04-22T09:28:50;4.45;;;4.05;;
10985;SDS011;5546;48.714;8.738;2023-04-22T09:31:23;2.28;;;1.70;;
10985;SDS011;5546;48.714;8.738;2023-04-22T09:33:53;1.80;;;1.70;;
10985;SDS011;5546;48.714;8.738;2023-04-22T09:36:21;3.22;;;1.70;;
10985;SDS011;5546;48.714;8.738;2023-04-22T09:39:06;3.47;;;1.88;;
10985;SDS011;5546;48.714;8.738;2023-04-22T09:41:33;2.30;;;1.42;;
10985;SDS011;5546;48.714;8.738;2023-04-22T09:44:00;1.40;;;1.30;;
10985;SDS011;5546;48.714;8.738;2023-04-22T09:46:27;1.73;;;1.52;;
10985;SDS011;5546;48.714;8.738;2023-04-22T09:48:54;1.75;;;1.60;;
10985;SDS011;5546;48.714;8.738;2023-04-22T09:51:21;2.22;;;1.45;;
10985;SDS011;5546;48.714;8.738;2023-04-22T09:54:03;1.83;;;1.60;;
10985;SDS011;5546;48.714;8.738;2023-04-22T09:56:39;1.98;;;1.67;;
10985;SDS011;5546;48.714;8.738;2023-04-22T09:59:11;2.40;;;1.90;;
10985;SDS011;5546;48.714;8.738;2023-04-22T10:01:38;1.92;;;1.70;;
10985;SDS011;5546;48.714;8.738;2023-04-22T10:04:05;1.85;;;1.65;;
10985;SDS011;5546;48.714;8.738;2023-04-22T10:06:33;2.75;;;1.63;;
10985;SDS011;5546;48.714;8.738;2023-04-22T10:08:59;2.17;;;1.60;;
10985;SDS011;5546;48.714;8.738;2023-04-22T10:11:26;2.75;;;1.92;;
10985;SDS011;5546;48.714;8.738;2023-04-22T10:13:52;1.92;;;1.75;;
10985;SDS011;5546;48.714;8.738;2023-04-22T10:16:18;2.67;;;1.80;;
10985;SDS011;5546;48.714;8.738;2023-04-22T10:18:45;4.93;;;1.63;;
10985;SDS011;5546;48.714;8.738;2023-04-22T10:21:12;3.22;;;1.70;;
10985;SDS011;5546;48.714;8.738;2023-04-22T10:23:42;3.00;;;1.60;;
10985;SDS011;5546;48.714;8.738;2023-04-22T10:26:10;2.80;;;2.00;;
10985;SDS011;5546;48.714;8.738;2023-04-22T10:28:40;2.63;;;1.63;;
10985;SDS011;5546;48.714;8.738;2023-04-22T10:31:18;2.13;;;1.60;;
10985;SDS011;5546;48.714;8.738;2023-04-22T10:33:45;4.10;;;1.75;;
10985;SDS011;5546;48.714;8.738;2023-04-22T10:36:16;3.25;;;1.88;;
10985;SDS011;5546;48.714;8.738;2023-04-22T10:41:15;4.72;;;1.50;;
10985;SDS011;5546;48.714;8.738;2023-04-22T10:48:55;5.30;;;1.60;;
10985;SDS011;5546;48.714;8.738;2023-04-22T10:51:37;3.42;;;2.03;;
10985;SDS011;5546;48.714;8.738;2023-04-22T10:54:02;3.42;;;1.50;;
10985;SDS011;5546;48.714;8.738;2023-04-22T10:56:28;4.03;;;1.90;;
10985;SDS011;5546;48.714;8.738;2023-04-22T10:59:07;1.85;;;1.63;;
10985;SDS011;5546;48.714;8.738;2023-04-22T11:01:40;3.03;;;1.60;;
10985;SDS011;5546;48.714;8.738;2023-04-22T11:04:21;2.10;;;1.77;;
10985;SDS011;5546;48.714;8.738;2023-04-22T11:09:43;2.63;;;1.67;;
10985;SDS011;5546;48.714;8.738;2023-04-22T11:15:24;1.98;;;1.77;;
10985;SDS011;5546;48.714;8.738;2023-04-22T11:17:50;2.28;;;1.60;;
10985;SDS011;5546;48.714;8.738;2023-04-22T11:20:17;3.88;;;1.88;;
10985;SDS011;5546;48.714;8.738;2023-04-22T11:23:02;3.00;;;1.73;;
10985;SDS011;5546;48.714;8.738;2023-04-22T11:25:28;3.22;;;1.80;;
10985;SDS011;5546;48.714;8.738;2023-04-22T11:27:54;4.38;;;1.92;;
10985;SDS011;5546;48.714;8.738;2023-04-22T11:30:21;3.97;;;1.88;;
10985;SDS011;5546;48.714;8.738;2023-04-22T11:32:51;1.80;;;1.50;;
10985;SDS011;5546;48.714;8.738;2023-04-22T11:35:29;4.07;;;1.70;;
10985;SDS011;5546;48.714;8.738;2023-04-22T11:40:29;1.60;;;1.50;;
10985;SDS011;5546;48.714;8.738;2023-04-22T11:43:22;5.97;;;2.30;;
10985;SDS011;5546;48.714;8.738;2023-04-22T11:45:48;5.60;;;2.08;;
10985;SDS011;5546;48.714;8.738;2023-04-22T11:48:13;4.13;;;1.90;;
10985;SDS011;5546;48.714;8.738;2023-04-22T11:50:40;3.55;;;1.98;;
10985;SDS011;5546;48.714;8.738;2023-04-22T11:55:41;1.90;;;1.70;;
10985;SDS011;5546;48.714;8.738;2023-04-22T11:58:09;4.95;;;1.90;;
10985;SDS011;5546;48.714;8.738;2023-04-22T12:03:16;2.53;;;1.95;;
10985;SDS011;5546;48.714;8.738;2023-04-22T12:05:46;3.40;;;2.13;;
10985;SDS011;5546;48.714;8.738;2023-04-22T12:08:16;4.30;;;2.10;;
10985;SDS011;5546;48.714;8.738;2023-04-22T12:10:44;7.85;;;2.50;;
10985;SDS011;5546;48.714;8.738;2023-04-22T12:13:18;5.03;;;2.20;;
10985;SDS011;5546;48.714;8.738;2023-04-22T12:15:58;2.15;;;1.90;;
10985;SDS011;5546;48.714;8.738;2023-04-22T12:18:32;3.63;;;1.77;;
10985;SDS011;5546;48.714;8.738;2023-04-22T12:23:43;4.57;;;1.90;;
10985;SDS011;5546;48.714;8.738;2023-04-22T12:26:13;4.15;;;1.83;;
10985;SDS011;5546;48.714;8.738;2023-04-22T12:28:40;4.70;;;1.85;;
10985;SDS011;5546;48.714;8.738;2023-04-22T12:31:06;1.75;;;1.60;;
10985;SDS011;5546;48.714;8.738;2023-04-22T12:33:32;5.10;;;1.77;;
10985;SDS011;5546;48.714;8.738;2023-04-22T12:35:59;4.53;;;1.80;;
10985;SDS011;5546;48.714;8.738;2023-04-22T12:38:24;4.20;;;2.00;;
10985;SDS011;5546;48.714;8.738;2023-04-22T12:40:51;4.70;;;1.80;;
10985;SDS011;5546;48.714;8.738;2023-04-22T12:43:17;3.05;;;1.70;;
10985;SDS011;5546;48.714;8.738;2023-04-22T12:45:42;4.57;;;1.70;;
10985;SDS011;5546;48.714;8.738;2023-04-22T12:48:08;1.80;;;1.55;;
10985;SDS011;5546;48.714;8.738;2023-04-22T12:50:34;3.92;;;1.90;;
10985;SDS011;5546;48.714;8.738;2023-04-22T12:53:01;2.33;;;1.80;;
10985;SDS011;5546;48.714;8.738;2023-04-22T12:55:27;4.18;;;1.80;;
10985;SDS011;5546;48.714;8.738;2023-04-22T12:57:53;4.10;;;1.80;;
10985;SDS011;5546;48.714;8.738;2023-04-22T13:00:18;2.65;;;1.50;;
10985;SDS011;5546;48.714;8.738;2023-04-22T13:02:45;3.67;;;1.90;;
10985;SDS011;5546;48.714;8.738;2023-04-22T13:05:12;4.55;;;1.90;;
10985;SDS011;5546;48.714;8.738;2023-04-22T13:07:38;2.35;;;1.48;;
10985;SDS011;5546;48.714;8.738;2023-04-22T13:10:05;2.92;;;1.80;;
10985;SDS011;5546;48.714;8.738;2023-04-22T13:12:32;3.00;;;1.55;;
10985;SDS011;5546;48.714;8.738;2023-04-22T13:14:58;1.70;;;1.50;;
10985;SDS011;5546;48.714;8.738;2023-04-22T13:17:23;2.85;;;2.03;;
10985;SDS011;5546;48.714;8.738;2023-04-22T13:19:50;2.53;;;1.83;;
10985;SDS011;5546;48.714;8.738;2023-04-22T13:22:16;3.45;;;1.98;;
10985;SDS011;5546;48.714;8.738;2023-04-22T13:24:42;4.50;;;1.80;;
10985;SDS011;5546;48.714;8.738;2023-04-22T13:27:07;4.32;;;2.00;;
10985;SDS011;5546;48.714;8.738;2023-04-22T13:29:33;2.42;;;2.00;;
10985;SDS011;5546;48.714;8.738;2023-04-22T13:31:59;3.15;;;2.22;;
10985;SDS011;5546;48.714;8.738;2023-04-22T13:34:25;3.25;;;1.67;;
10985;SDS011;5546;48.714;8.738;2023-04-22T13:36:50;3.70;;;1.98;;
10985;SDS011;5546;48.714;8.738;2023-04-22T13:39:16;2.30;;;1.92;;
10985;SDS011;5546;48.714;8.738;2023-04-22T13:41:43;3.45;;;2.00;;
10985;SDS011;5546;48.714;8.738;2023-04-22T13:44:10;3.67;;;2.00;;
10985;SDS011;5546;48.714;8.738;2023-04-22T13:46:36;4.25;;;2.42;;
10985;SDS011;5546;48.714;8.738;2023-04-22T13:49:05;3.22;;;1.98;;
10985;SDS011;5546;48.714;8.738;2023-04-22T13:51:31;4.70;;;1.98;;
10985;SDS011;5546;48.714;8.738;2023-04-22T13:54:02;3.08;;;1.60;;
10985;SDS011;5546;48.714;8.738;2023-04-22T13:56:29;4.43;;;1.77;;
10985;SDS011;5546;48.714;8.738;2023-04-22T13:58:55;2.35;;;1.90;;
10985;SDS011;5546;48.714;8.738;2023-04-22T14:01:21;4.90;;;1.92;;
10985;SDS011;5546;48.714;8.738;2023-04-22T14:03:47;3.42;;;1.80;;
10985;SDS011;5546;48.714;8.738;2023-04-22T14:06:13;4.63;;;2.08;;
10985;SDS011;5546;48.714;8.738;2023-04-22T14:08:39;3.55;;;1.92;;
10985;SDS011;5546;48.714;8.738;2023-04-22T14:11:06;5.95;;;2.05;;
10985;SDS011;5546;48.714;8.738;2023-04-22T14:13:32;3.03;;;1.95;;
10985;SDS011;5546;48.714;8.738;2023-04-22T14:16:07;2.78;;;1.70;;
10985;SDS011;5546;48.714;8.738;2023-04-22T14:18:35;3.20;;;1.95;;
10985;SDS011;5546;48.714;8.738;2023-04-22T14:21:03;3.67;;;2.00;;
10985;SDS011;5546;48.714;8.738;2023-04-22T14:23:41;2.97;;;1.80;;
10985;SDS011;5546;48.714;8.738;2023-04-22T14:26:08;4.47;;;2.00;;
10985;SDS011;5546;48.714;8.738;2023-04-22T14:28:35;4.80;;;2.08;;
10985;SDS011;5546;48.714;8.738;2023-04-22T14:31:02;3.10;;;1.83;;
10985;SDS011;5546;48.714;8.738;2023-04-22T14:33:28;3.53;;;2.00;;
10985;SDS011;5546;48.714;8.738;2023-04-22T14:35:56;2.83;;;2.15;;
10985;SDS011;5546;48.714;8.738;2023-04-22T14:38:24;3.08;;;2.10;;
10985;SDS011;5546;48.714;8.738;2023-04-22T14:40:50;3.33;;;2.00;;
10985;SDS011;5546;48.714;8.738;2023-04-22T14:43:16;3.17;;;2.42;;
10985;SDS011;5546;48.714;8.738;2023-04-22T14:45:44;2.00;;;1.65;;
10985;SDS011;5546;48.714;8.738;2023-04-22T14:48:10;3.58;;;2.55;;
10985;SDS011;5546;48.714;8.738;2023-04-22T14:50:36;5.00;;;1.90;;
10985;SDS011;5546;48.714;8.738;2023-04-22T14:53:02;2.83;;;2.05;;
10985;SDS011;5546;48.714;8.738;2023-04-22T14:55:27;2.55;;;1.80;;
10985;SDS011;5546;48.714;8.738;2023-04-22T14:57:55;2.25;;;1.75;;
10985;SDS011;5546;48.714;8.738;2023-04-22T15:00:21;3.83;;;2.00;;
10985;SDS011;5546;48.714;8.738;2023-04-22T15:02:47;2.60;;;1.45;;
10985;SDS011;5546;48.714;8.738;2023-04-22T15:05:12;2.33;;;2.00;;
10985;SDS011;5546;48.714;8.738;2023-04-22T15:07:38;2.95;;;1.95;;
10985;SDS011;5546;48.714;8.738;2023-04-22T15:10:04;5.45;;;1.98;;
10985;SDS011;5546;48.714;8.738;2023-04-22T15:12:29;4.90;;;2.10;;
10985;SDS011;5546;48.714;8.738;2023-04-22T15:14:55;5.13;;;2.33;;
10985;SDS011;5546;48.714;8.738;2023-04-22T15:17:21;5.10;;;1.92;;
10985;SDS011;5546;48.714;8.738;2023-04-22T15:19:47;4.25;;;1.80;;
10985;SDS011;5546;48.714;8.738;2023-04-22T15:22:13;3.72;;;1.80;;
10985;SDS011;5546;48.714;8.738;2023-04-22T15:24:39;3.53;;;2.17;;
10985;SDS011;5546;48.714;8.738;2023-04-22T15:27:05;5.07;;;1.67;;
10985;SDS011;5546;48.714;8.738;2023-04-22T15:29:31;1.70;;;1.60;;